Time;durP1;ratioP1;P1;durP2;ratioP2;P2;SDS_P1;SDS_P2;PMS_P1;PMS_P2;Temp;Humidity;BMP_temperature;BMP_pressure;BME280_temperature;BME280_humidity;BME280_pressure;Samples;Min_cycle;Max_cycle;Signal;HPM_P1;HPM_P2
2022/04/27 00:00:33;;;;;;;12.70;11.50;;;10.50;99.90;;;;;;5088633;28;20933;-70
2022/04/27 00:03:01;;;;;;;12.77;11.47;;;10.70;99.90;;;;;;5107304;28;20467;-70
2022/04/27 00:05:28;;;;;;;12.33;11.10;;;10.80;99.90;;;;;;5088197;28;20529;-69
2022/04/27 00:07:54;;;;;;;13.67;12.17;;;10.80;99.90;;;;;;5106736;28;20493;-68
2022/04/27 00:10:20;;;;;;;15.00;13.50;;;10.90;99.90;;;;;;5107102;28;20455;-69
2022/04/27 00:12:46;;;;;;;12.80;11.60;;;11.00;99.90;;;;;;5106710;28;20506;-71
2022/04/27 00:15:13;;;;;;;12.50;11.30;;;11.00;99.90;;;;;;5088614;28;20212;-68
2022/04/27 00:17:39;;;;;;;14.27;12.87;;;10.80;99.90;;;;;;5106583;28;20465;-69
2022/04/27 00:20:06;;;;;;;12.20;11.00;;;10.80;99.90;;;;;;5088173;28;20948;-69
2022/04/27 00:22:32;;;;;;;12.97;11.67;;;10.70;99.90;;;;;;5105888;28;20482;-69
2022/04/27 00:25:02;;;;;;;14.87;13.37;;;10.70;99.90;;;;;;5106459;28;20462;-68
2022/04/27 00:27:28;;;;;;;15.70;13.90;;;10.80;99.90;;;;;;5105349;28;20279;-68
2022/04/27 00:29:55;;;;;;;15.13;13.63;;;10.50;99.90;;;;;;5106702;28;20902;-70
2022/04/27 00:32:20;;;;;;;12.70;11.50;;;10.60;99.90;;;;;;5106432;28;20482;-71
2022/04/27 00:34:46;;;;;;;15.50;13.97;;;10.70;99.90;;;;;;5106564;28;20426;-70
2022/04/27 00:37:11;;;;;;;14.80;13.30;;;10.70;99.90;;;;;;5105998;28;20181;-69
2022/04/27 00:39:37;;;;;;;15.30;13.77;;;10.70;99.90;;;;;;5106546;28;20645;-67
2022/04/27 00:42:13;;;;;;;16.10;14.50;;;10.70;99.90;;;;;;5106395;28;20177;-68
2022/04/27 00:44:43;;;;;;;19.23;17.30;;;10.80;99.90;;;;;;5105985;28;20242;-68
2022/04/27 00:47:09;;;;;;;15.67;14.07;;;10.80;99.90;;;;;;5106120;28;20410;-69
2022/04/27 00:49:35;;;;;;;15.60;14.10;;;10.90;99.90;;;;;;5124184;22;20432;-76
2022/04/27 00:52:01;;;;;;;15.73;14.13;;;10.80;99.90;;;;;;5067167;28;20427;-75
2022/04/27 00:54:28;;;;;;;16.70;14.90;;;10.80;99.90;;;;;;5089829;28;20196;-74
2022/04/27 00:56:53;;;;;;;15.77;14.17;;;10.70;99.90;;;;;;5051379;28;20279;-77
2022/04/27 00:59:19;;;;;;;19.53;17.60;;;10.60;99.90;;;;;;5057188;28;20512;-76
2022/04/27 01:01:45;;;;;;;16.60;14.20;;;10.80;99.90;;;;;;5047281;28;20293;-77
2022/04/27 01:04:11;;;;;;;18.27;16.47;;;11.00;99.90;;;;;;5046352;28;20615;-77
2022/04/27 01:06:38;;;;;;;16.10;14.40;;;10.90;99.90;;;;;;5046671;28;20463;-74
2022/04/27 01:09:04;;;;;;;17.37;15.53;;;11.00;99.90;;;;;;5047182;28;20258;-73
2022/04/27 01:11:33;;;;;;;18.67;16.77;;;11.10;99.90;;;;;;5046958;28;20452;-75
2022/04/27 01:13:59;;;;;;;17.90;16.10;;;11.00;99.90;;;;;;5047296;28;20512;-77
2022/04/27 01:16:25;;;;;;;17.50;15.70;;;11.10;99.90;;;;;;5047822;28;20428;-76
2022/04/27 01:18:51;;;;;;;17.17;15.37;;;11.10;99.90;;;;;;5047392;28;20409;-76
2022/04/27 01:21:17;;;;;;;19.03;17.23;;;11.10;99.90;;;;;;5045676;28;20436;-77
2022/04/27 01:23:43;;;;;;;18.93;16.93;;;11.00;99.90;;;;;;5047976;28;20602;-77
2022/04/27 01:26:09;;;;;;;16.27;14.60;;;11.00;99.90;;;;;;5047196;28;20983;-77
2022/04/27 01:28:37;;;;;;;18.40;15.70;;;11.10;99.90;;;;;;5046712;28;20427;-74
2022/04/27 01:31:06;;;;;;;18.07;16.17;;;11.20;99.90;;;;;;5045408;28;20773;-73
2022/04/27 01:33:35;;;;;;;18.13;16.33;;;11.20;99.90;;;;;;5046719;28;20418;-75
2022/04/27 01:36:02;;;;;;;19.07;17.00;;;11.20;99.90;;;;;;5045487;28;21463;-74
2022/04/27 01:38:33;;;;;;;17.83;16.00;;;11.30;99.90;;;;;;5047087;28;20473;-77
2022/04/27 01:40:59;;;;;;;16.70;14.97;;;11.30;99.90;;;;;;5046732;28;20885;-77
2022/04/27 01:43:24;;;;;;;16.57;14.97;;;11.30;99.90;;;;;;5047071;28;20455;-77
2022/04/27 01:45:53;;;;;;;21.53;19.23;;;11.30;99.90;;;;;;5047695;28;20190;-74
2022/04/27 01:48:20;;;;;;;21.27;17.03;;;11.30;99.90;;;;;;5056901;28;20190;-77
2022/04/27 01:50:46;;;;;;;20.07;17.97;;;11.30;99.90;;;;;;5060243;28;20453;-75
2022/04/27 01:55:56;;;;;;;17.93;16.03;;;11.10;99.90;;;;;;5053993;28;20464;-76
2022/04/27 01:58:22;;;;;;;19.60;17.50;;;11.20;99.90;;;;;;5050029;28;20422;-77
2022/04/27 02:00:48;;;;;;;22.93;19.43;;;11.20;99.90;;;;;;5050908;28;20206;-78
2022/04/27 02:03:15;;;;;;;21.17;18.97;;;11.10;99.90;;;;;;5051775;28;20424;-77
2022/04/27 02:05:41;;;;;;;24.20;21.20;;;11.00;99.90;;;;;;5050978;28;20813;-77
2022/04/27 02:08:07;;;;;;;23.17;20.73;;;11.10;99.90;;;;;;5047253;28;20478;-74
2022/04/27 02:10:34;;;;;;;27.13;24.23;;;11.10;99.90;;;;;;5046982;28;20467;-77
2022/04/27 02:13:04;;;;;;;22.67;20.20;;;11.00;99.90;;;;;;5046007;28;20504;-77
2022/04/27 02:15:29;;;;;;;26.87;23.97;;;10.90;99.90;;;;;;5045673;28;20428;-77
2022/04/27 02:17:56;;;;;;;24.80;20.77;;;10.90;99.90;;;;;;5043990;28;21395;-77
2022/04/27 02:20:23;;;;;;;26.77;21.83;;;10.70;99.90;;;;;;5045517;28;20214;-75
2022/04/27 02:22:48;;;;;;;25.00;22.40;;;10.50;99.90;;;;;;5043739;28;20512;-75
2022/04/27 02:25:14;;;;;;;26.80;23.30;;;10.40;99.90;;;;;;5045924;28;20554;-76
2022/04/27 02:27:41;;;;;;;26.93;22.90;;;10.50;99.90;;;;;;5046580;28;20182;-74
2022/04/27 02:30:07;;;;;;;22.93;19.80;;;10.70;99.90;;;;;;5054434;28;20202;-75
2022/04/27 02:32:33;;;;;;;27.77;24.43;;;10.80;99.90;;;;;;5054979;28;20480;-77
2022/04/27 02:34:58;;;;;;;23.57;20.87;;;10.60;99.90;;;;;;5053534;28;20424;-77
2022/04/27 02:37:24;;;;;;;23.57;21.17;;;10.60;99.90;;;;;;5049129;28;20182;-75
2022/04/27 02:39:49;;;;;;;24.13;21.23;;;10.40;99.90;;;;;;5043802;28;20563;-77
2022/04/27 02:42:18;;;;;;;22.40;20.00;;;10.50;99.90;;;;;;5045351;28;20182;-77
2022/04/27 02:44:44;;;;;;;21.80;19.50;;;10.60;99.90;;;;;;5042724;28;20245;-76
2022/04/27 02:47:10;;;;;;;25.67;21.77;;;10.50;99.90;;;;;;5043379;28;20497;-77
2022/04/27 02:52:20;;;;;;;23.57;19.90;;;10.60;99.90;;;;;;5049332;28;20254;-77
2022/04/27 02:54:45;;;;;;;26.00;22.60;;;10.60;99.90;;;;;;5047435;28;20870;-76
2022/04/27 02:57:11;;;;;;;24.00;21.40;;;10.80;99.90;;;;;;5048845;28;20236;-76
2022/04/27 02:59:37;;;;;;;24.97;22.10;;;10.90;99.90;;;;;;5049426;28;20176;-76
2022/04/27 03:02:02;;;;;;;21.47;18.93;;;10.90;99.90;;;;;;5048770;28;20180;-77
2022/04/27 03:04:28;;;;;;;25.00;21.73;;;10.70;99.90;;;;;;5049243;28;20187;-74
2022/04/27 03:06:54;;;;;;;27.53;23.93;;;10.80;99.90;;;;;;5048057;28;20183;-76
2022/04/27 03:09:20;;;;;;;22.80;19.93;;;10.60;99.90;;;;;;5049180;28;20232;-77
2022/04/27 03:11:45;;;;;;;20.70;18.70;;;10.60;99.90;;;;;;5049248;28;20207;-77
2022/04/27 03:14:11;;;;;;;21.70;18.80;;;10.40;99.90;;;;;;5048777;28;20408;-77
2022/04/27 03:16:37;;;;;;;22.70;20.10;;;10.50;99.90;;;;;;5048320;28;20176;-76
2022/04/27 03:19:02;;;;;;;21.57;19.33;;;10.60;99.90;;;;;;5048443;28;20187;-77
2022/04/27 03:21:29;;;;;;;21.73;19.20;;;10.70;99.90;;;;;;5048514;28;20289;-74
2022/04/27 03:23:56;;;;;;;24.00;20.67;;;10.50;99.90;;;;;;5045173;28;20171;-74
2022/04/27 03:26:22;;;;;;;20.03;17.97;;;10.70;99.90;;;;;;5046766;28;20463;-76
2022/04/27 03:28:47;;;;;;;18.33;16.30;;;10.50;99.90;;;;;;5048758;28;20417;-76
2022/04/27 03:31:13;;;;;;;19.67;17.43;;;10.50;99.90;;;;;;5047737;28;20635;-74
2022/04/27 03:33:39;;;;;;;20.57;17.80;;;10.30;99.90;;;;;;5048340;28;20182;-76
2022/04/27 03:36:06;;;;;;;18.57;16.47;;;10.20;99.90;;;;;;5046942;28;20182;-77
2022/04/27 03:38:31;;;;;;;21.77;19.00;;;10.40;99.90;;;;;;5047181;28;20178;-77
2022/04/27 03:40:57;;;;;;;21.53;18.70;;;10.50;99.90;;;;;;5048128;28;20451;-76
2022/04/27 03:43:23;;;;;;;21.10;18.47;;;10.50;99.90;;;;;;5045787;28;20178;-74
2022/04/27 03:45:49;;;;;;;19.17;17.20;;;10.40;99.90;;;;;;5046793;28;20343;-76
2022/04/27 03:48:14;;;;;;;20.40;18.20;;;10.40;99.90;;;;;;5047916;28;20424;-77
2022/04/27 03:50:40;;;;;;;17.80;16.00;;;10.40;99.90;;;;;;5047572;28;20593;-75
2022/04/27 03:53:06;;;;;;;17.87;16.07;;;10.40;99.90;;;;;;5047099;28;20220;-76
2022/04/27 03:55:33;;;;;;;18.73;16.50;;;10.40;99.90;;;;;;5046291;28;20421;-75
2022/04/27 03:58:00;;;;;;;20.30;17.70;;;10.50;99.90;;;;;;5045845;28;20185;-74
2022/04/27 04:00:26;;;;;;;18.60;16.70;;;10.30;99.90;;;;;;5044732;28;20445;-73
2022/04/27 04:02:52;;;;;;;17.40;15.60;;;10.20;99.90;;;;;;5047365;28;20413;-77
2022/04/27 04:05:17;;;;;;;20.10;17.90;;;9.90;99.90;;;;;;5047302;28;20202;-76
2022/04/27 04:07:43;;;;;;;20.77;17.93;;;10.10;99.90;;;;;;5046014;28;20179;-73
2022/04/27 04:10:09;;;;;;;21.00;18.77;;;10.40;99.90;;;;;;5046896;28;20680;-77
2022/04/27 04:12:34;;;;;;;18.87;16.57;;;10.70;99.90;;;;;;5047268;28;20182;-76
2022/04/27 04:15:02;;;;;;;18.53;16.50;;;10.70;99.90;;;;;;5047059;28;20178;-75
2022/04/27 04:17:27;;;;;;;19.90;16.03;;;10.70;99.90;;;;;;5047042;28;20188;-75
2022/04/27 04:19:53;;;;;;;19.73;17.63;;;10.90;99.90;;;;;;5045740;28;20445;-76
2022/04/27 04:22:19;;;;;;;22.20;19.20;;;11.10;99.90;;;;;;5045977;28;20261;-74
2022/04/27 04:28:29;;;;;;;22.17;19.77;;;11.10;99.90;;;;;;5046538;28;20298;-77
2022/04/27 04:30:15;;;;;;;20.17;18.07;;;11.10;99.90;;;;;;5053571;28;21697;-74
2022/04/27 04:32:41;;;;;;;22.87;19.77;;;11.10;99.90;;;;;;5054774;28;20413;-77
2022/04/27 04:35:08;;;;;;;24.80;20.23;;;11.20;99.90;;;;;;5056518;28;20483;-77
2022/04/27 04:37:33;;;;;;;19.43;17.20;;;11.30;99.90;;;;;;5055899;28;21008;-77
2022/04/27 04:39:59;;;;;;;20.97;17.77;;;11.30;99.90;;;;;;5058870;28;20429;-78
2022/04/27 04:42:25;;;;;;;21.40;18.43;;;11.40;99.90;;;;;;5050850;28;20183;-74
2022/04/27 04:44:50;;;;;;;19.40;17.30;;;11.50;99.90;;;;;;5049168;28;20194;-77
2022/04/27 04:47:16;;;;;;;20.60;17.50;;;11.60;99.90;;;;;;5048059;28;20179;-77
2022/04/27 04:49:42;;;;;;;21.47;19.27;;;11.70;99.90;;;;;;5047026;28;21055;-76
2022/04/27 04:52:08;;;;;;;20.67;18.53;;;11.80;99.90;;;;;;5053654;28;20478;-77
2022/04/27 04:54:34;;;;;;;22.37;18.97;;;11.80;99.90;;;;;;5055956;28;20175;-77
2022/04/27 04:57:00;;;;;;;19.80;16.97;;;11.60;99.90;;;;;;5055894;28;20635;-78
2022/04/27 04:59:26;;;;;;;17.53;15.57;;;11.60;99.90;;;;;;5057379;28;20411;-78
2022/04/27 05:01:51;;;;;;;19.00;16.70;;;11.70;99.90;;;;;;5058115;28;20179;-78
2022/04/27 05:04:17;;;;;;;21.50;17.90;;;11.60;99.90;;;;;;5056500;28;20182;-78
2022/04/27 05:06:44;;;;;;;22.93;20.27;;;11.70;99.90;;;;;;5055551;28;20175;-77
2022/04/27 05:09:10;;;;;;;20.80;17.20;;;11.50;99.90;;;;;;5056693;28;20181;-78
2022/04/27 05:11:36;;;;;;;20.47;18.23;;;11.30;99.90;;;;;;5057570;28;20417;-77
2022/04/27 05:14:01;;;;;;;22.77;20.30;;;11.30;99.90;;;;;;5055778;28;20401;-77
2022/04/27 05:16:27;;;;;;;22.57;19.87;;;11.40;99.90;;;;;;5045074;28;20186;-77
2022/04/27 05:18:53;;;;;;;28.00;22.93;;;11.50;99.90;;;;;;5068222;28;20170;-77
2022/04/27 05:21:18;;;;;;;20.43;18.30;;;11.60;99.90;;;;;;5062100;28;20190;-78
2022/04/27 05:23:44;;;;;;;23.77;21.20;;;11.60;99.90;;;;;;5056072;28;20175;-76
2022/04/27 05:26:11;;;;;;;20.23;18.10;;;11.70;99.90;;;;;;5055017;28;20659;-77
2022/04/27 05:34:06;;;;;;;22.03;19.63;;;11.60;99.90;;;;;;5055522;28;20475;-78
2022/04/27 05:36:32;;;;;;;31.13;22.23;;;11.60;99.90;;;;;;5052321;28;20810;-77
2022/04/27 05:38:57;;;;;;;23.20;20.07;;;11.70;99.90;;;;;;5047798;28;20190;-78
2022/04/27 05:41:23;;;;;;;20.63;18.40;;;11.80;99.90;;;;;;5054726;28;20203;-78
2022/04/27 05:43:48;;;;;;;24.87;20.70;;;11.80;99.90;;;;;;5056312;28;20171;-78
2022/04/27 05:46:15;;;;;;;24.70;22.10;;;11.70;99.90;;;;;;5056838;28;20561;-78
2022/04/27 05:48:40;;;;;;;24.17;21.20;;;11.60;99.90;;;;;;5055414;28;20172;-78
2022/04/27 05:51:06;;;;;;;25.70;22.67;;;11.70;99.90;;;;;;5056378;28;20443;-78
2022/04/27 05:53:32;;;;;;;29.10;23.30;;;11.80;99.90;;;;;;5057342;28;20208;-78
2022/04/27 05:55:57;;;;;;;25.00;21.17;;;11.80;99.90;;;;;;5056008;28;20410;-77
2022/04/27 05:58:24;;;;;;;21.90;19.20;;;11.90;99.90;;;;;;5059866;28;20186;-78
2022/04/27 06:00:51;;;;;;;23.77;21.20;;;12.00;99.90;;;;;;5061499;28;20248;-78
2022/04/27 06:03:16;;;;;;;24.97;21.67;;;12.00;99.90;;;;;;5053891;28;20420;-78
2022/04/27 06:05:42;;;;;;;23.20;20.30;;;12.10;99.90;;;;;;5055312;28;20940;-77
2022/04/27 06:08:09;;;;;;;29.40;22.50;;;12.20;99.90;;;;;;5055214;28;20167;-77
2022/04/27 06:10:35;;;;;;;25.10;21.90;;;12.10;99.90;;;;;;5054760;28;20182;-77
2022/04/27 06:13:01;;;;;;;25.40;21.97;;;12.10;99.90;;;;;;5054945;28;20971;-78
2022/04/27 06:15:26;;;;;;;21.40;19.17;;;12.20;99.90;;;;;;5054660;28;20191;-78
2022/04/27 06:17:52;;;;;;;29.70;24.20;;;11.80;99.90;;;;;;5054570;28;20171;-78
2022/04/27 06:20:18;;;;;;;25.90;23.20;;;11.50;99.90;;;;;;5053916;28;20197;-78
2022/04/27 06:22:43;;;;;;;21.47;19.27;;;11.60;99.90;;;;;;5054215;28;20183;-75
2022/04/27 06:25:09;;;;;;;26.87;24.00;;;11.70;99.90;;;;;;5054333;28;20206;-77
2022/04/27 06:27:35;;;;;;;25.30;22.57;;;11.80;99.90;;;;;;5055294;28;20166;-77
2022/04/27 06:30:01;;;;;;;24.50;21.57;;;11.40;99.90;;;;;;5054426;28;20437;-77
2022/04/27 06:32:30;;;;;;;22.60;19.97;;;11.40;99.90;;;;;;5054955;28;20167;-76
2022/04/27 06:34:55;;;;;;;23.37;19.60;;;11.30;99.90;;;;;;5052945;28;20182;-76
2022/04/27 06:37:21;;;;;;;22.30;19.80;;;10.90;99.90;;;;;;5053231;28;20415;-77
2022/04/27 06:39:46;;;;;;;26.40;19.57;;;10.90;99.90;;;;;;5051429;28;20251;-76
2022/04/27 06:42:12;;;;;;;23.87;20.93;;;11.10;99.90;;;;;;5053708;28;20189;-77
2022/04/27 06:44:38;;;;;;;20.27;18.10;;;11.30;99.90;;;;;;5060906;28;20638;-75
2022/04/27 06:47:03;;;;;;;21.93;19.63;;;11.40;99.90;;;;;;5072746;28;20169;-77
2022/04/27 06:49:29;;;;;;;19.03;17.00;;;11.40;99.90;;;;;;5073081;28;20178;-74
2022/04/27 06:51:55;;;;;;;24.83;20.00;;;11.50;99.90;;;;;;5104246;22;20487;-75
2022/04/27 06:54:20;;;;;;;25.67;19.10;;;11.60;99.90;;;;;;5093395;28;20167;-75
2022/04/27 06:56:46;;;;;;;25.33;21.07;;;11.70;99.90;;;;;;5093355;28;20172;-73
2022/04/27 06:59:12;;;;;;;20.33;18.20;;;11.70;99.90;;;;;;5091997;28;20176;-75
2022/04/27 07:01:38;;;;;;;21.83;19.50;;;11.60;99.90;;;;;;5093224;28;20188;-73
2022/04/27 07:04:08;;;;;;;20.53;18.13;;;11.50;99.90;;;;;;5091722;28;20173;-72
2022/04/27 07:06:34;;;;;;;21.20;18.90;;;11.20;99.90;;;;;;5092356;28;20454;-68
2022/04/27 07:09:00;;;;;;;22.73;19.00;;;11.20;99.90;;;;;;5093132;28;20403;-69
2022/04/27 07:11:26;;;;;;;19.77;17.67;;;11.20;99.90;;;;;;5091940;28;20518;-68
2022/04/27 07:13:54;;;;;;;20.47;17.90;;;11.40;99.90;;;;;;5092957;28;20391;-69
2022/04/27 07:16:20;;;;;;;19.70;17.60;;;11.20;99.90;;;;;;5092984;28;20162;-68
2022/04/27 07:18:46;;;;;;;20.67;16.67;;;11.40;99.90;;;;;;5093191;28;20501;-68
2022/04/27 07:21:12;;;;;;;18.67;16.30;;;11.20;99.90;;;;;;5092292;28;20943;-69
2022/04/27 07:23:38;;;;;;;20.03;17.20;;;11.00;99.90;;;;;;5091710;28;20660;-68
2022/04/27 07:26:07;;;;;;;18.80;16.43;;;11.20;99.90;;;;;;5092891;28;20956;-68
2022/04/27 07:28:32;;;;;;;15.70;14.10;;;11.40;99.90;;;;;;5092399;28;20409;-69
2022/04/27 07:30:58;;;;;;;16.80;15.10;;;11.80;99.90;;;;;;5092575;28;20420;-68
2022/04/27 07:33:24;;;;;;;17.83;14.77;;;11.80;99.90;;;;;;5093285;28;20681;-70
2022/04/27 07:35:49;;;;;;;16.10;14.43;;;11.90;99.90;;;;;;5092732;28;20248;-73
2022/04/27 07:38:15;;;;;;;15.07;13.60;;;11.50;99.90;;;;;;5095799;28;20511;-73
2022/04/27 07:40:41;;;;;;;15.23;13.27;;;11.20;99.90;;;;;;5096410;28;20278;-71
2022/04/27 07:43:06;;;;;;;16.70;15.00;;;11.60;99.90;;;;;;5096752;28;20174;-71
2022/04/27 07:45:32;;;;;;;15.10;13.50;;;11.80;99.90;;;;;;5096809;28;20446;-74
2022/04/27 07:47:58;;;;;;;16.00;14.30;;;12.30;99.90;;;;;;5110470;28;20165;-80
2022/04/27 07:50:23;;;;;;;16.03;14.33;;;12.40;99.90;;;;;;5112421;28;20275;-79
2022/04/27 07:52:49;;;;;;;13.60;12.27;;;12.50;99.90;;;;;;5105143;28;20603;-72
2022/04/27 07:55:15;;;;;;;15.47;13.77;;;12.70;99.90;;;;;;5096467;28;20176;-73
2022/04/27 07:57:40;;;;;;;17.03;13.73;;;12.70;99.90;;;;;;5096513;28;20177;-73
2022/04/27 08:00:13;;;;;;;15.90;14.20;;;12.50;99.90;;;;;;5096174;28;20194;-72
2022/04/27 08:02:40;;;;;;;13.70;12.40;;;12.20;99.90;;;;;;5096151;28;20211;-72
2022/04/27 08:05:07;;;;;;;14.40;12.90;;;12.00;99.90;;;;;;5095636;28;20489;-71
2022/04/27 08:07:40;;;;;;;15.60;12.57;;;11.90;99.90;;;;;;5095896;28;20778;-73
2022/04/27 08:10:16;;;;;;;12.93;11.70;;;12.00;99.90;;;;;;5096443;28;20741;-71
2022/04/27 08:12:46;;;;;;;14.23;12.47;;;11.90;99.90;;;;;;5096512;28;20772;-73
2022/04/27 08:15:15;;;;;;;14.80;12.73;;;12.00;99.90;;;;;;5095935;28;20410;-72
2022/04/27 08:17:51;;;;;;;12.97;11.67;;;12.20;99.90;;;;;;5095793;28;20415;-73
2022/04/27 08:23:06;;;;;;;14.80;13.30;;;12.60;99.90;;;;;;5094636;28;20600;-72
2022/04/27 08:25:31;;;;;;;12.47;11.13;;;12.30;99.90;;;;;;5095879;28;20485;-71
2022/04/27 08:27:57;;;;;;;14.33;12.87;;;12.40;99.90;;;;;;5096081;28;20413;-72
2022/04/27 08:30:22;;;;;;;15.90;13.67;;;12.40;99.90;;;;;;5093079;28;20200;-70
2022/04/27 08:32:48;;;;;;;13.23;11.83;;;12.40;99.90;;;;;;5095550;28;20181;-69
2022/04/27 08:35:13;;;;;;;14.50;12.87;;;12.40;99.90;;;;;;5095619;28;20178;-71
2022/04/27 08:37:39;;;;;;;20.60;12.93;;;12.70;99.90;;;;;;5095411;28;20194;-70
2022/04/27 08:40:06;;;;;;;15.63;13.17;;;12.80;99.90;;;;;;5095356;28;20176;-70
2022/04/27 08:42:32;;;;;;;15.43;13.37;;;12.60;99.90;;;;;;5096105;28;20197;-71
2022/04/27 08:44:59;;;;;;;14.80;13.03;;;12.60;99.90;;;;;;5094650;28;20912;-71
2022/04/27 08:47:27;;;;;;;15.83;14.00;;;12.60;99.90;;;;;;5094922;28;20415;-71
2022/04/27 08:49:53;;;;;;;14.10;12.60;;;12.80;99.90;;;;;;5094789;28;20419;-70
2022/04/27 08:52:21;;;;;;;13.50;12.13;;;13.10;99.90;;;;;;5095133;28;20447;-71
2022/04/27 08:54:48;;;;;;;14.93;13.27;;;12.80;99.90;;;;;;5094082;28;20937;-71
2022/04/27 08:57:13;;;;;;;14.13;12.30;;;12.60;99.90;;;;;;5093172;28;20447;-70
2022/04/27 08:59:39;;;;;;;12.97;11.67;;;13.00;99.90;;;;;;5095221;28;20426;-69
2022/04/27 09:02:35;;;;;;;14.73;13.10;;;13.10;99.90;;;;;;5094920;28;20209;-69
2022/04/27 09:05:11;;;;;;;13.50;11.70;;;13.00;99.90;;;;;;5089172;28;20205;-70
2022/04/27 09:07:54;;;;;;;14.00;12.50;;;13.20;99.90;;;;;;5095186;28;20392;-70
2022/04/27 09:10:24;;;;;;;14.10;12.60;;;13.90;99.90;;;;;;5095038;28;20887;-71
2022/04/27 09:12:51;;;;;;;12.10;10.83;;;14.10;99.90;;;;;;5093515;28;20414;-72
2022/04/27 09:15:22;;;;;;;13.27;11.13;;;14.30;99.90;;;;;;5094959;28;20540;-70
2022/04/27 09:20:47;;;;;;;10.13;8.83;;;14.90;99.90;;;;;;5094053;28;20416;-70
2022/04/27 09:23:23;;;;;;;10.20;9.20;;;15.30;99.90;;;;;;5092296;28;20437;-73
2022/04/27 09:25:51;;;;;;;10.70;9.43;;;15.50;99.90;;;;;;5094617;28;20442;-70
2022/04/27 09:28:17;;;;;;;10.47;8.90;;;15.10;99.90;;;;;;5094732;28;20777;-72
2022/04/27 09:30:46;;;;;;;10.20;9.20;;;14.60;99.90;;;;;;5094584;28;21027;-71
2022/04/27 09:33:12;;;;;;;10.33;9.33;;;14.50;99.90;;;;;;5100562;28;20461;-71
2022/04/27 09:35:38;;;;;;;8.60;7.50;;;14.80;99.90;;;;;;5102671;28;20406;-71
2022/04/27 09:38:18;;;;;;;10.00;9.00;;;14.60;99.90;;;;;;5094753;28;20179;-72
2022/04/27 09:40:58;;;;;;;10.27;9.27;;;15.00;99.90;;;;;;5098590;28;20418;-71
2022/04/27 09:43:46;;;;;;;8.97;8.17;;;14.90;99.90;;;;;;5095231;28;20431;-71
2022/04/27 09:46:15;;;;;;;8.73;7.83;;;14.40;99.90;;;;;;5094422;28;20826;-73
2022/04/27 09:48:41;;;;;;;9.60;8.40;;;14.40;99.90;;;;;;5094415;28;20421;-72
2022/04/27 09:51:13;;;;;;;7.90;7.20;;;14.40;99.90;;;;;;5093941;28;20454;-70
2022/04/27 09:53:45;;;;;;;6.57;5.97;;;14.70;99.90;;;;;;5092471;28;20572;-71
2022/04/27 09:56:12;;;;;;;6.37;5.77;;;14.90;99.90;;;;;;5094040;28;20720;-72
2022/04/27 09:58:44;;;;;;;6.20;5.60;;;14.60;99.90;;;;;;5093993;28;20406;-68
2022/04/27 10:01:16;;;;;;;6.13;5.57;;;15.10;99.90;;;;;;5093810;28;20433;-70
2022/04/27 10:03:44;;;;;;;4.73;4.33;;;15.00;99.90;;;;;;5093630;28;20397;-70
2022/04/27 10:06:10;;;;;;;4.50;4.00;;;15.40;99.90;;;;;;5093590;28;20446;-71
2022/04/27 10:08:39;;;;;;;5.73;5.13;;;15.50;99.90;;;;;;5092264;28;20564;-71
2022/04/27 10:11:07;;;;;;;6.00;3.87;;;15.80;99.90;;;;;;5094033;28;20182;-72
2022/04/27 10:13:32;;;;;;;5.00;4.60;;;16.10;99.90;;;;;;5093652;28;20402;-70
2022/04/27 10:15:58;;;;;;;7.60;5.93;;;15.40;99.90;;;;;;5093619;28;20435;-72
2022/04/27 10:18:24;;;;;;;6.17;5.40;;;15.20;99.90;;;;;;5093307;28;20715;-71
2022/04/27 10:20:51;;;;;;;5.53;4.73;;;14.90;99.90;;;;;;5093463;28;20193;-71
2022/04/27 10:23:20;;;;;;;5.23;4.70;;;14.90;99.90;;;;;;5092207;28;20177;-70
2022/04/27 10:26:15;;;;;;;6.10;5.50;;;15.00;99.90;;;;;;5093331;28;20442;-72
2022/04/27 10:28:50;;;;;;;6.37;5.70;;;14.80;99.90;;;;;;5093811;28;20771;-73
2022/04/27 10:31:44;;;;;;;5.03;4.63;;;14.70;99.90;;;;;;5093880;28;20494;-72
2022/04/27 10:34:23;;;;;;;4.53;4.13;;;15.20;99.90;;;;;;5093757;28;20490;-72
2022/04/27 10:36:50;;;;;;;5.60;4.97;;;14.60;99.90;;;;;;5093495;28;20991;-72
2022/04/27 10:39:19;;;;;;;5.43;4.47;;;14.90;99.90;;;;;;5093113;28;20416;-72
2022/04/27 10:41:56;;;;;;;4.43;4.13;;;15.60;99.90;;;;;;5093392;28;20437;-72
2022/04/27 10:44:42;;;;;;;4.27;3.90;;;15.80;99.90;;;;;;5093741;28;20406;-72
2022/04/27 10:47:15;;;;;;;5.07;4.60;;;15.90;99.90;;;;;;5093864;28;20900;-72
2022/04/27 10:49:40;;;;;;;5.03;4.10;;;15.60;99.90;;;;;;5093512;28;20875;-72
2022/04/27 10:52:07;;;;;;;5.70;5.10;;;14.90;99.90;;;;;;5091154;28;20453;-73
2022/04/27 10:54:35;;;;;;;4.30;3.90;;;14.80;99.90;;;;;;5092827;28;20408;-72
2022/04/27 10:57:30;;;;;;;5.67;5.17;;;15.10;99.90;;;;;;5091747;28;20410;-72
2022/04/27 11:00:05;;;;;;;5.83;5.17;;;15.30;99.90;;;;;;5084019;28;20420;-71
2022/04/27 11:02:35;;;;;;;4.17;3.83;;;15.20;99.90;;;;;;5090710;28;20504;-71
2022/04/27 11:05:02;;;;;;;8.73;5.27;;;15.40;99.90;;;;;;5093077;28;20971;-72
2022/04/27 11:07:44;;;;;;;4.20;3.90;;;15.50;99.90;;;;;;5093203;28;20501;-72
2022/04/27 11:10:14;;;;;;;4.47;4.10;;;15.90;99.90;;;;;;5092934;28;20443;-72
2022/04/27 11:12:42;;;;;;;4.33;3.97;;;16.40;99.90;;;;;;5096508;28;20751;-72
2022/04/27 11:15:11;;;;;;;4.73;4.33;;;16.50;99.90;;;;;;5097238;28;20858;-71
2022/04/27 11:17:37;;;;;;;5.83;4.40;;;16.20;99.90;;;;;;5096751;28;20825;-72
2022/04/27 11:20:04;;;;;;;6.67;5.63;;;15.70;99.90;;;;;;5096949;28;20407;-72
2022/04/27 11:22:38;;;;;;;6.00;5.50;;;15.50;99.90;;;;;;5095892;28;20953;-72
2022/04/27 11:25:07;;;;;;;5.70;5.20;;;15.40;99.90;;;;;;5094916;28;20483;-71
2022/04/27 11:27:34;;;;;;;6.07;5.57;;;15.40;99.90;;;;;;5096927;28;20921;-71
2022/04/27 11:30:03;;;;;;;5.30;4.57;;;15.70;99.90;;;;;;5076546;28;20402;-70
2022/04/27 11:32:28;;;;;;;5.67;5.17;;;17.00;99.90;;;;;;5076539;28;20411;-70
2022/04/27 11:34:54;;;;;;;4.93;4.53;;;17.30;99.90;;;;;;5076472;28;20406;-73
2022/04/27 11:37:20;;;;;;;5.50;5.00;;;19.40;99.80;;;;;;5076446;28;20181;-72
2022/04/27 11:39:47;;;;;;;5.13;4.70;;;20.70;96.40;;;;;;5095377;28;20654;-73
2022/04/27 11:42:16;;;;;;;5.57;5.10;;;21.40;94.60;;;;;;5097200;28;20434;-70
2022/04/27 11:44:43;;;;;;;5.83;5.33;;;21.60;93.20;;;;;;5096522;28;20411;-71
2022/04/27 11:47:30;;;;;;;5.47;4.97;;;20.70;92.60;;;;;;5095049;28;20411;-69
2022/04/27 11:50:01;;;;;;;6.57;5.00;;;20.30;93.80;;;;;;5096474;28;20452;-73
2022/04/27 11:52:28;;;;;;;5.23;4.83;;;20.30;94.10;;;;;;5095669;28;20955;-70
2022/04/27 11:55:10;;;;;;;5.13;4.63;;;21.00;93.20;;;;;;5096155;28;20415;-71
2022/04/27 11:57:36;;;;;;;5.60;5.07;;;22.30;91.90;;;;;;5096191;28;20400;-71
2022/04/27 12:00:03;;;;;;;5.00;4.60;;;22.20;90.00;;;;;;5096625;28;20902;-71
2022/04/27 12:02:28;;;;;;;5.57;5.10;;;22.50;90.80;;;;;;5094201;28;20188;-69
2022/04/27 12:04:58;;;;;;;4.80;4.40;;;21.90;88.70;;;;;;5096409;28;20451;-70
2022/04/27 12:07:24;;;;;;;4.80;4.40;;;22.90;88.00;;;;;;5096678;28;20203;-70
2022/04/27 12:10:02;;;;;;;5.40;5.00;;;22.70;85.90;;;;;;5095780;28;20428;-70
2022/04/27 12:12:30;;;;;;;5.13;4.73;;;22.10;86.60;;;;;;5096314;28;20644;-70
2022/04/27 12:14:57;;;;;;;5.87;5.37;;;21.00;89.30;;;;;;5096556;28;20434;-74
2022/04/27 12:17:44;;;;;;;4.70;4.40;;;21.10;89.20;;;;;;5094484;28;20556;-71
2022/04/27 12:20:38;;;;;;;4.67;4.23;;;20.40;91.20;;;;;;5095950;28;20407;-71
2022/04/27 12:23:09;;;;;;;5.23;4.73;;;19.80;91.70;;;;;;5093456;28;20529;-71
2022/04/27 12:25:57;;;;;;;4.57;4.17;;;19.40;93.60;;;;;;5094376;28;20450;-71
2022/04/27 12:28:40;;;;;;;4.90;4.50;;;20.90;91.50;;;;;;5095634;28;20398;-70
2022/04/27 12:31:08;;;;;;;5.03;4.53;;;21.90;90.40;;;;;;5094378;28;20488;-71
2022/04/27 12:33:35;;;;;;;5.10;4.70;;;21.80;87.60;;;;;;5096132;28;20411;-71
2022/04/27 12:39:07;;;;;;;6.10;5.50;;;18.90;92.00;;;;;;5095683;28;20424;-71
2022/04/27 12:41:42;;;;;;;4.73;4.33;;;19.20;92.10;;;;;;5095857;28;20438;-72
2022/04/27 12:44:19;;;;;;;4.93;3.73;;;19.30;92.90;;;;;;5095078;28;20992;-70
2022/04/27 12:47:00;;;;;;;4.17;3.77;;;19.70;91.10;;;;;;5095793;28;20519;-73
2022/04/27 12:49:31;;;;;;;4.80;4.40;;;19.60;91.50;;;;;;5094618;28;20774;-71
2022/04/27 12:52:17;;;;;;;4.90;4.50;;;19.80;91.40;;;;;;5122373;22;20979;-78
2022/04/27 12:54:44;;;;;;;4.50;4.10;;;19.80;91.20;;;;;;5094928;28;20451;-77
2022/04/27 12:57:10;;;;;;;4.80;4.40;;;19.20;92.10;;;;;;5094732;28;20501;-76
2022/04/27 12:59:56;;;;;;;4.43;4.10;;;18.80;92.10;;;;;;5093089;28;20419;-76